createdAt,value
2023-05-02T00:02:07.260Z,14.00
2023-05-02T00:04:35.661Z,14.10
2023-05-02T00:07:06.388Z,14.10
2023-05-02T00:09:34.293Z,14.00
2023-05-02T00:12:03.292Z,14.00
2023-05-02T00:14:31.110Z,14.00
2023-05-02T00:16:59.064Z,14.00
2023-05-02T00:19:27.113Z,14.00
2023-05-02T00:21:54.944Z,14.00
2023-05-02T00:24:24.104Z,14.00
2023-05-02T00:26:51.917Z,14.10
2023-05-02T00:29:19.712Z,14.10
2023-05-02T00:31:47.910Z,14.00
2023-05-02T00:34:15.740Z,14.00
2023-05-02T00:36:43.555Z,13.90
2023-05-02T00:39:11.406Z,13.80
2023-05-02T00:41:40.697Z,13.70
2023-05-02T00:44:08.511Z,13.60
2023-05-02T00:46:36.424Z,13.70
2023-05-02T00:49:04.390Z,13.60
2023-05-02T00:51:34.201Z,13.50
2023-05-02T00:54:04.238Z,13.40
2023-05-02T00:56:32.075Z,13.10
2023-05-02T00:59:01.522Z,13.00
2023-05-02T01:01:40.951Z,12.80
2023-05-02T01:04:22.957Z,12.80
2023-05-02T01:07:07.067Z,12.70
2023-05-02T01:09:43.094Z,12.60
2023-05-02T01:12:17.702Z,12.40
2023-05-02T01:14:54.840Z,12.50
2023-05-02T01:17:28.211Z,12.40
2023-05-02T01:19:59.334Z,12.50
2023-05-02T01:22:30.476Z,12.70
2023-05-02T01:25:09.702Z,12.70
2023-05-02T01:27:48.684Z,12.50
2023-05-02T01:30:20.029Z,12.50
2023-05-02T01:32:49.451Z,12.60
2023-05-02T01:35:18.884Z,12.70
2023-05-02T01:37:47.761Z,12.60
2023-05-02T01:40:19.447Z,12.60
2023-05-02T01:42:49.251Z,12.60
2023-05-02T01:45:20.254Z,12.50
2023-05-02T01:47:48.713Z,12.40
2023-05-02T01:50:23.049Z,12.40
2023-05-02T01:52:53.021Z,12.40
2023-05-02T01:55:21.404Z,12.50
2023-05-02T01:57:51.832Z,12.60
2023-05-02T02:00:22.276Z,12.50
2023-05-02T02:02:52.185Z,12.50
2023-05-02T02:05:21.202Z,12.50
2023-05-02T02:07:49.284Z,12.60
2023-05-02T02:10:17.749Z,12.70
2023-05-02T02:12:51.947Z,12.80
2023-05-02T02:15:27.040Z,12.80
2023-05-02T02:18:01.181Z,12.90
2023-05-02T02:20:32.212Z,12.80
2023-05-02T02:23:04.132Z,12.70
2023-05-02T02:25:33.177Z,12.70
2023-05-02T02:28:01.689Z,12.60
2023-05-02T02:30:31.092Z,12.50
2023-05-02T02:32:58.935Z,12.50
2023-05-02T02:35:32.334Z,12.60
2023-05-02T02:38:10.875Z,12.50
2023-05-02T02:40:45.996Z,12.40
2023-05-02T02:43:21.617Z,12.70
2023-05-02T02:46:04.557Z,12.80
2023-05-02T02:48:37.413Z,12.80
2023-05-02T02:51:12.798Z,12.60
2023-05-02T02:53:51.066Z,12.50
2023-05-02T02:56:28.768Z,12.40
2023-05-02T02:59:03.177Z,12.40
2023-05-02T03:01:34.298Z,12.50
2023-05-02T03:04:06.512Z,12.40
2023-05-02T03:06:34.635Z,12.40
2023-05-02T03:09:05.032Z,12.40
2023-05-02T03:11:33.067Z,12.50
2023-05-02T03:14:00.894Z,12.70
2023-05-02T03:16:37.880Z,12.70
2023-05-02T03:19:06.820Z,12.80
2023-05-02T03:21:35.377Z,12.80
2023-05-02T03:24:05.067Z,12.70
2023-05-02T03:26:32.910Z,12.70
2023-05-02T03:29:00.723Z,12.60
2023-05-02T03:31:28.604Z,12.50
2023-05-02T03:33:57.812Z,12.40
2023-05-02T03:36:25.656Z,12.20
2023-05-02T03:38:53.504Z,12.30
2023-05-02T03:41:21.353Z,12.30
2023-05-02T03:43:49.209Z,12.30
2023-05-02T03:46:17.067Z,12.20
2023-05-02T03:48:46.398Z,12.20
2023-05-02T03:51:15.629Z,12.30
2023-05-02T03:53:43.543Z,12.40
2023-05-02T03:56:11.382Z,12.50
2023-05-02T03:58:39.180Z,12.60
2023-05-02T04:01:14.807Z,12.70
2023-05-02T04:03:42.838Z,12.80
2023-05-02T04:06:10.880Z,12.80
2023-05-02T04:08:40.191Z,12.80
2023-05-02T04:11:08.170Z,12.60
2023-05-02T04:13:36.073Z,12.50
2023-05-02T04:16:04.702Z,12.40
2023-05-02T04:18:32.522Z,12.50
2023-05-02T04:21:00.350Z,12.40
2023-05-02T04:23:28.344Z,12.50
2023-05-02T04:25:57.580Z,12.50
2023-05-02T04:28:25.618Z,12.50
2023-05-02T04:30:53.770Z,12.60
2023-05-02T04:33:21.635Z,12.70
2023-05-02T04:35:49.580Z,12.80
2023-05-02T04:38:17.622Z,12.70
2023-05-02T04:40:45.898Z,12.60
2023-05-02T04:43:15.040Z,12.60
2023-05-02T04:45:42.882Z,12.70
2023-05-02T04:48:10.890Z,12.60
2023-05-02T04:50:38.747Z,12.70
2023-05-02T04:53:07.126Z,12.80
2023-05-02T04:55:35.170Z,12.90
2023-05-02T04:58:02.987Z,12.90
2023-05-02T05:00:32.153Z,12.90
2023-05-02T05:03:01.747Z,12.90
2023-05-02T05:05:30.022Z,12.70
2023-05-02T05:07:58.046Z,12.80
2023-05-02T05:10:26.126Z,12.80
2023-05-02T05:12:54.343Z,13.00
2023-05-02T05:15:23.900Z,13.10
2023-05-02T05:17:53.096Z,13.10
2023-05-02T05:20:20.961Z,13.10
2023-05-02T05:22:48.804Z,12.90
2023-05-02T05:25:16.812Z,12.70
2023-05-02T05:27:44.633Z,12.80
2023-05-02T05:30:12.916Z,12.80
2023-05-02T05:32:40.780Z,12.90
2023-05-02T05:35:11.200Z,13.00
2023-05-02T05:37:39.536Z,13.20
2023-05-02T05:40:09.329Z,13.20
2023-05-02T05:42:37.250Z,13.20
2023-05-02T05:45:05.749Z,13.20
2023-05-02T05:47:33.739Z,13.20
2023-05-02T05:50:02.073Z,13.20
2023-05-02T05:52:31.646Z,13.30
2023-05-02T05:54:59.714Z,13.30
2023-05-02T05:57:27.572Z,13.40
2023-05-02T05:59:55.651Z,13.50
2023-05-02T06:02:23.711Z,13.50
2023-05-02T06:04:51.718Z,13.30
2023-05-02T06:07:19.620Z,13.30
2023-05-02T06:09:48.764Z,13.40
2023-05-02T06:12:17.563Z,13.40
2023-05-02T06:14:45.402Z,13.50
2023-05-02T06:17:13.379Z,13.60
2023-05-02T06:19:41.205Z,13.70
2023-05-02T06:22:09.037Z,13.80
2023-05-02T06:24:37.774Z,13.70
2023-05-02T06:27:07.001Z,13.70
2023-05-02T06:29:34.854Z,13.70
2023-05-02T06:32:02.695Z,13.70
2023-05-02T06:34:33.080Z,13.50
2023-05-02T06:37:01.365Z,13.40
2023-05-02T06:39:29.273Z,13.40
2023-05-02T06:41:58.647Z,13.60
2023-05-02T06:44:27.864Z,13.60
2023-05-02T06:46:56.468Z,13.60
2023-05-02T06:49:24.309Z,13.60
2023-05-02T06:51:52.306Z,13.70
2023-05-02T06:54:21.732Z,13.70
2023-05-02T06:56:49.619Z,13.80
2023-05-02T06:59:17.601Z,13.70
2023-05-02T07:01:46.758Z,13.70
2023-05-02T07:04:14.623Z,13.60
2023-05-02T07:06:42.557Z,13.60
2023-05-02T07:09:10.511Z,13.70
2023-05-02T07:11:38.348Z,13.80
2023-05-02T07:14:06.581Z,13.80
2023-05-02T07:16:34.574Z,13.80
2023-05-02T07:19:04.697Z,13.80
2023-05-02T07:21:32.636Z,14.00
2023-05-02T07:24:00.791Z,14.20
2023-05-02T07:26:29.673Z,14.20
2023-05-02T07:28:57.656Z,14.20
2023-05-02T07:31:25.521Z,14.20
2023-05-02T07:33:53.342Z,14.30
2023-05-02T07:36:22.727Z,14.40
2023-05-02T07:38:50.639Z,14.40
2023-05-02T07:41:18.454Z,14.30
2023-05-02T07:43:46.388Z,14.30
2023-05-02T07:46:14.232Z,14.40
2023-05-02T07:48:42.752Z,14.50
2023-05-02T07:51:11.857Z,14.40
2023-05-02T07:53:41.021Z,14.30
2023-05-02T07:56:09.454Z,14.40
2023-05-02T07:58:37.387Z,14.50
2023-05-02T08:01:05.692Z,14.60
2023-05-02T08:03:33.882Z,14.60
2023-05-02T08:06:03.053Z,14.50
2023-05-02T08:08:30.936Z,14.40
2023-05-02T08:11:00.304Z,14.40
2023-05-02T08:13:28.321Z,14.40
2023-05-02T08:15:57.929Z,14.40
2023-05-02T08:18:25.931Z,14.40
2023-05-02T08:20:54.105Z,14.40
2023-05-02T08:23:21.972Z,14.40
2023-05-02T08:25:49.768Z,14.40
2023-05-02T08:28:19.927Z,14.50
2023-05-02T08:30:48.920Z,14.70
2023-05-02T08:33:16.761Z,14.90
2023-05-02T08:35:44.594Z,14.90
2023-05-02T08:38:12.384Z,14.90
2023-05-02T08:40:42.764Z,14.80
2023-05-02T08:43:12.941Z,14.70
2023-05-02T08:45:43.872Z,14.70
2023-05-02T08:48:13.223Z,14.90
2023-05-02T08:50:43.388Z,14.90
2023-05-02T08:53:13.536Z,15.10
2023-05-02T08:55:42.991Z,15.10
2023-05-02T08:58:13.273Z,15.30
2023-05-02T09:00:44.030Z,15.50
2023-05-02T09:03:24.915Z,15.60
2023-05-02T09:05:55.109Z,15.60
2023-05-02T09:08:24.181Z,15.80
2023-05-02T09:10:52.377Z,16.00
2023-05-02T09:13:34.616Z,16.20
2023-05-02T09:16:05.642Z,16.70
2023-05-02T09:18:35.883Z,16.90
2023-05-02T09:21:08.870Z,16.90
2023-05-02T09:23:38.811Z,17.10
2023-05-02T09:26:18.299Z,17.20
2023-05-02T09:28:47.304Z,17.10
2023-05-02T09:31:27.057Z,16.80
2023-05-02T09:34:10.562Z,16.80
2023-05-02T09:36:41.648Z,16.70
2023-05-02T09:39:13.515Z,16.70
2023-05-02T09:41:42.572Z,16.50
2023-05-02T09:44:12.031Z,16.30
2023-05-02T09:46:45.620Z,16.10
2023-05-02T09:49:14.624Z,16.00
2023-05-02T09:51:43.911Z,15.90
2023-05-02T09:54:11.919Z,15.90
2023-05-02T09:56:54.207Z,16.10
2023-05-02T09:59:22.039Z,16.10
2023-05-02T10:01:57.113Z,16.20
2023-05-02T10:04:25.963Z,16.30
2023-05-02T10:06:54.568Z,16.60
2023-05-02T10:09:23.321Z,16.60
2023-05-02T10:11:53.306Z,16.80
2023-05-02T10:14:22.454Z,16.70
2023-05-02T10:17:00.351Z,16.80
2023-05-02T10:19:34.562Z,16.80
2023-05-02T10:22:03.504Z,16.80
2023-05-02T10:24:34.422Z,16.70
2023-05-02T10:27:03.107Z,16.70
2023-05-02T10:29:32.098Z,16.80
2023-05-02T10:32:04.886Z,17.00
2023-05-02T10:34:33.901Z,17.20
2023-05-02T10:37:02.283Z,17.20
2023-05-02T10:39:31.340Z,17.40
2023-05-02T10:42:02.081Z,17.40
2023-05-02T10:44:34.866Z,17.80
2023-05-02T10:47:19.936Z,18.40
2023-05-02T10:49:53.004Z,19.20
2023-05-02T10:52:29.274Z,19.80
2023-05-02T10:55:17.801Z,19.80
2023-05-02T10:58:23.071Z,20.10
2023-05-02T11:00:51.114Z,20.70
2023-05-02T11:03:48.729Z,20.60
2023-05-02T11:06:17.958Z,20.50
2023-05-02T11:08:46.235Z,20.50
2023-05-02T11:11:40.306Z,20.90
2023-05-02T11:14:08.240Z,21.20
2023-05-02T11:17:16.359Z,21.30
2023-05-02T11:20:29.880Z,21.40
2023-05-02T11:23:01.988Z,21.00
2023-05-02T11:25:34.585Z,21.10
2023-05-02T11:28:02.621Z,21.30
2023-05-02T11:30:50.824Z,21.30
2023-05-02T11:33:20.188Z,20.90
2023-05-02T11:35:49.911Z,20.90
2023-05-02T11:38:21.625Z,20.70
2023-05-02T11:40:57.526Z,20.40
2023-05-02T11:43:28.721Z,20.20
2023-05-02T11:45:59.758Z,20.10
2023-05-02T11:48:28.841Z,20.40
2023-05-02T11:51:02.128Z,20.50
2023-05-02T11:53:32.968Z,20.80
2023-05-02T11:56:02.563Z,20.90
2023-05-02T11:58:32.876Z,21.20
2023-05-02T12:01:13.175Z,21.40
2023-05-02T12:03:41.783Z,21.10
2023-05-02T12:06:12.062Z,20.70
2023-05-02T12:08:42.291Z,20.00
2023-05-02T12:11:10.885Z,19.60
2023-05-02T12:13:46.119Z,19.10
2023-05-02T12:16:14.359Z,19.00
2023-05-02T12:18:42.632Z,18.60
2023-05-02T12:21:10.676Z,18.50
2023-05-02T12:23:40.442Z,18.60
2023-05-02T12:26:19.882Z,18.70
2023-05-02T12:28:51.497Z,18.90
2023-05-02T12:31:19.654Z,19.20
2023-05-02T12:33:50.196Z,20.00
2023-05-02T12:36:18.593Z,20.30
2023-05-02T12:38:54.398Z,20.50
2023-05-02T12:41:33.389Z,20.80
2023-05-02T12:44:01.779Z,20.70
2023-05-02T12:46:30.000Z,20.80
2023-05-02T12:49:06.519Z,21.40
2023-05-02T12:51:34.599Z,21.40
2023-05-02T12:54:02.724Z,22.10
2023-05-02T12:56:39.292Z,22.40
2023-05-02T12:59:07.881Z,22.30
2023-05-02T13:01:36.102Z,22.80
2023-05-02T13:04:05.488Z,23.40
2023-05-02T13:06:33.488Z,24.20
2023-05-02T13:09:01.772Z,24.20
2023-05-02T13:11:29.610Z,23.30
2023-05-02T13:14:00.198Z,22.70
2023-05-02T13:16:30.181Z,22.50
2023-05-02T13:18:58.242Z,22.60
2023-05-02T13:21:26.060Z,22.20
2023-05-02T13:23:55.346Z,22.50
2023-05-02T13:26:23.160Z,22.50
2023-05-02T13:28:50.978Z,22.60
2023-05-02T13:31:20.195Z,22.30
2023-05-02T13:33:48.040Z,22.00
2023-05-02T13:36:15.853Z,22.30
2023-05-02T13:38:43.676Z,22.80
2023-05-02T13:41:11.488Z,23.00
2023-05-02T13:43:40.655Z,23.50
2023-05-02T13:46:08.901Z,23.70
2023-05-02T13:48:38.294Z,23.80
2023-05-02T13:51:06.174Z,22.60
2023-05-02T13:53:34.184Z,22.00
2023-05-02T13:56:01.987Z,22.40
2023-05-02T13:58:29.807Z,22.40
2023-05-02T14:00:57.895Z,21.90
2023-05-02T14:03:26.036Z,21.30
2023-05-02T14:05:55.308Z,21.60
2023-05-02T14:08:23.117Z,22.00
2023-05-02T14:10:50.993Z,22.40
2023-05-02T14:13:18.817Z,22.60
2023-05-02T14:15:46.831Z,22.20
2023-05-02T14:18:16.220Z,22.20
2023-05-02T14:20:44.207Z,22.00
2023-05-02T14:23:13.385Z,22.00
2023-05-02T14:25:41.258Z,22.10
2023-05-02T14:28:09.083Z,22.00
2023-05-02T14:30:37.175Z,22.10
2023-05-02T14:33:05.026Z,22.40
2023-05-02T14:35:32.875Z,22.20
2023-05-02T14:38:01.198Z,22.10
2023-05-02T14:40:30.348Z,21.50
2023-05-02T14:42:58.360Z,21.30
2023-05-02T14:45:26.842Z,21.40
2023-05-02T14:47:54.702Z,21.70
2023-05-02T14:50:22.596Z,21.60
2023-05-02T14:52:50.749Z,21.80
2023-05-02T14:55:18.737Z,22.20
2023-05-02T14:57:48.275Z,22.40
2023-05-02T15:00:17.646Z,21.80
2023-05-02T15:02:45.558Z,21.50
2023-05-02T15:05:13.524Z,21.60
2023-05-02T15:07:41.393Z,21.20
2023-05-02T15:10:10.329Z,21.10
2023-05-02T15:12:38.175Z,21.00
2023-05-02T15:15:09.117Z,20.80
2023-05-02T15:17:36.970Z,20.30
2023-05-02T15:20:05.597Z,20.00
2023-05-02T15:22:33.518Z,20.00
2023-05-02T15:25:03.043Z,19.70
2023-05-02T15:27:31.820Z,19.50
2023-05-02T15:29:59.963Z,19.50
2023-05-02T15:32:29.389Z,19.80
2023-05-02T15:34:57.242Z,19.60
2023-05-02T15:37:25.651Z,19.40
2023-05-02T15:39:53.463Z,19.20
2023-05-02T15:42:21.449Z,19.40
2023-05-02T15:44:49.289Z,19.30
2023-05-02T15:47:18.116Z,19.30
2023-05-02T15:49:51.656Z,19.20
2023-05-02T15:52:19.494Z,19.10
2023-05-02T15:54:47.623Z,18.70
2023-05-02T15:57:15.466Z,18.30
2023-05-02T15:59:43.280Z,18.10
2023-05-02T16:02:11.109Z,17.80
2023-05-02T16:04:39.077Z,17.90
2023-05-02T16:07:08.276Z,17.90
2023-05-02T16:09:36.231Z,17.90
2023-05-02T16:12:04.573Z,17.60
2023-05-02T16:14:32.426Z,17.40
2023-05-02T16:17:00.251Z,17.20
2023-05-02T16:19:28.272Z,17.00
2023-05-02T16:21:56.098Z,16.80
2023-05-02T16:24:25.287Z,16.70
2023-05-02T16:26:53.332Z,16.70
2023-05-02T16:29:21.196Z,16.50
2023-05-02T16:31:49.092Z,16.50
2023-05-02T16:34:16.956Z,16.30
2023-05-02T16:36:46.632Z,16.20
2023-05-02T16:39:14.641Z,16.00
2023-05-02T16:41:44.951Z,15.90
2023-05-02T16:44:12.836Z,15.70
2023-05-02T16:46:41.353Z,15.80
2023-05-02T16:49:09.330Z,15.80
2023-05-02T16:51:37.141Z,15.70
2023-05-02T16:54:05.210Z,15.70
2023-05-02T16:56:33.167Z,15.70
2023-05-02T16:59:02.674Z,15.50
2023-05-02T17:01:30.636Z,15.50
2023-05-02T17:03:58.759Z,15.50
2023-05-02T17:06:26.570Z,15.40
2023-05-02T17:08:54.449Z,15.40
2023-05-02T17:11:22.561Z,15.30
2023-05-02T17:13:51.013Z,15.20
2023-05-02T17:16:20.977Z,15.10
2023-05-02T17:18:49.214Z,15.10
2023-05-02T17:21:17.043Z,15.10
2023-05-02T17:23:44.903Z,15.10
2023-05-02T17:26:15.706Z,15.10
2023-05-02T17:28:44.884Z,14.90
2023-05-02T17:31:13.016Z,15.00
2023-05-02T17:33:43.104Z,14.90
2023-05-02T17:36:11.120Z,14.80
2023-05-02T17:38:38.932Z,14.70
2023-05-02T17:41:06.808Z,14.70
2023-05-02T17:43:34.659Z,14.50
2023-05-02T17:46:08.367Z,14.50
2023-05-02T17:48:36.718Z,14.40
2023-05-02T17:51:07.012Z,14.30
2023-05-02T17:53:36.530Z,14.20
2023-05-02T17:56:04.452Z,14.10
2023-05-02T17:58:32.550Z,14.00
2023-05-02T18:01:08.336Z,14.00
2023-05-02T18:03:37.042Z,13.90
2023-05-02T18:06:06.705Z,13.90
2023-05-02T18:08:34.817Z,13.90
2023-05-02T18:11:03.213Z,13.80
2023-05-02T18:13:31.280Z,13.70
2023-05-02T18:15:59.554Z,13.70
2023-05-02T18:18:27.469Z,13.60
2023-05-02T18:20:55.728Z,13.60
2023-05-02T18:23:25.233Z,13.60
2023-05-02T18:25:53.025Z,13.50
2023-05-02T18:28:20.878Z,13.50
2023-05-02T18:30:48.882Z,13.40
2023-05-02T18:33:16.848Z,13.40
2023-05-02T18:35:47.321Z,13.40
2023-05-02T18:38:15.630Z,13.30
2023-05-02T18:40:45.011Z,13.20
2023-05-02T18:43:12.878Z,13.10
2023-05-02T18:45:41.061Z,13.00
2023-05-02T18:48:08.976Z,13.00
2023-05-02T18:50:36.910Z,12.90
2023-05-02T18:53:04.957Z,12.90
2023-05-02T18:55:33.528Z,12.90
2023-05-02T18:58:02.983Z,12.80
2023-05-02T19:00:31.772Z,12.80
2023-05-02T19:02:59.875Z,12.70
2023-05-02T19:05:28.238Z,12.70
2023-05-02T19:07:56.202Z,12.60
2023-05-02T19:10:24.037Z,12.50
2023-05-02T19:12:51.844Z,12.50
2023-05-02T19:15:21.467Z,12.40
2023-05-02T19:17:50.645Z,12.40
2023-05-02T19:20:18.672Z,12.40
2023-05-02T19:22:47.329Z,12.30
2023-05-02T19:25:15.828Z,12.40
2023-05-02T19:27:45.130Z,12.30
2023-05-02T19:30:14.243Z,12.20
2023-05-02T19:32:43.472Z,12.20
2023-05-02T19:35:11.570Z,12.20
2023-05-02T19:37:39.444Z,12.10
2023-05-02T19:40:08.755Z,12.10
2023-05-02T19:42:37.333Z,12.00
2023-05-02T19:45:05.766Z,11.90
2023-05-02T19:47:33.669Z,11.70
2023-05-02T19:50:03.256Z,11.70
2023-05-02T19:52:31.099Z,11.70
2023-05-02T19:54:58.936Z,11.60
2023-05-02T19:57:26.750Z,11.50
2023-05-02T19:59:55.111Z,11.40
2023-05-02T20:02:23.038Z,11.30
2023-05-02T20:04:50.917Z,11.20
2023-05-02T20:07:20.112Z,11.10
2023-05-02T20:09:47.983Z,11.10
2023-05-02T20:12:16.203Z,11.00
2023-05-02T20:14:44.053Z,10.90
2023-05-02T20:17:11.919Z,10.90
2023-05-02T20:19:39.791Z,10.80
2023-05-02T20:22:08.088Z,10.80
2023-05-02T20:24:37.285Z,10.80
2023-05-02T20:27:05.664Z,10.70
2023-05-02T20:29:33.714Z,10.70
2023-05-02T20:32:01.617Z,10.60
2023-05-02T20:34:29.554Z,10.60
2023-05-02T20:36:58.532Z,10.50
2023-05-02T20:39:26.645Z,10.50
2023-05-02T20:41:58.117Z,10.50
2023-05-02T20:44:26.453Z,10.40
2023-05-02T20:46:54.257Z,10.40
2023-05-02T20:49:22.249Z,10.40
2023-05-02T20:51:51.474Z,10.40
2023-05-02T20:54:19.557Z,10.30
2023-05-02T20:56:47.518Z,10.30
2023-05-02T20:59:16.667Z,10.30
2023-05-02T21:01:44.469Z,10.10
2023-05-02T21:04:12.672Z,10.10
2023-05-02T21:06:40.586Z,10.10
2023-05-02T21:09:09.364Z,10.00
2023-05-02T21:11:37.181Z,10.00
2023-05-02T21:14:05.004Z,9.90
2023-05-02T21:16:34.250Z,9.90
2023-05-02T21:19:02.436Z,9.90
2023-05-02T21:21:30.658Z,9.80
2023-05-02T21:23:59.206Z,9.70
2023-05-02T21:26:27.413Z,9.70
2023-05-02T21:28:55.273Z,9.70
2023-05-02T21:31:23.166Z,9.60
2023-05-02T21:33:52.344Z,9.60
2023-05-02T21:36:20.153Z,9.50
2023-05-02T21:38:48.106Z,9.50
2023-05-02T21:41:16.107Z,9.50
2023-05-02T21:43:44.664Z,9.50
2023-05-02T21:46:13.145Z,9.40
2023-05-02T21:48:41.177Z,9.40
2023-05-02T21:51:11.468Z,9.30
2023-05-02T21:53:39.404Z,9.30
2023-05-02T21:56:07.828Z,9.30
2023-05-02T21:58:35.710Z,9.30
2023-05-02T22:01:03.586Z,9.30
2023-05-02T22:03:33.888Z,9.20
2023-05-02T22:06:05.743Z,9.20
2023-05-02T22:08:35.224Z,9.10
2023-05-02T22:11:07.991Z,9.00
2023-05-02T22:13:36.604Z,9.00
2023-05-02T22:16:04.832Z,9.00
2023-05-02T22:18:32.672Z,8.90
2023-05-02T22:21:02.088Z,8.90
2023-05-02T22:23:30.914Z,8.90
2023-05-02T22:26:00.254Z,8.90
2023-05-02T22:28:28.294Z,8.80
2023-05-02T22:30:56.106Z,8.80
2023-05-02T22:33:23.966Z,8.70
2023-05-02T22:35:51.864Z,8.70
2023-05-02T22:38:21.024Z,8.70
2023-05-02T22:40:48.869Z,8.70
2023-05-02T22:43:18.410Z,8.60
2023-05-02T22:45:46.331Z,8.50
2023-05-02T22:48:14.144Z,8.50
2023-05-02T22:50:43.096Z,8.40
2023-05-02T22:53:11.046Z,8.40
2023-05-02T22:55:39.486Z,8.40
2023-05-02T22:58:07.439Z,8.30
2023-05-02T23:00:37.044Z,8.30
2023-05-02T23:03:05.049Z,8.20
2023-05-02T23:05:32.931Z,8.20
2023-05-02T23:08:00.771Z,8.20
2023-05-02T23:10:28.583Z,8.20
2023-05-02T23:12:56.621Z,8.20
2023-05-02T23:15:24.440Z,8.20
2023-05-02T23:17:53.606Z,8.20
2023-05-02T23:20:23.308Z,8.20
2023-05-02T23:22:51.224Z,8.20
2023-05-02T23:25:20.775Z,8.20
2023-05-02T23:27:48.781Z,8.20
2023-05-02T23:30:16.630Z,8.20
2023-05-02T23:32:44.820Z,8.20
2023-05-02T23:35:14.290Z,8.20
2023-05-02T23:37:42.468Z,8.10
2023-05-02T23:40:10.893Z,8.10
2023-05-02T23:42:40.274Z,8.00
2023-05-02T23:45:09.191Z,8.00
2023-05-02T23:47:37.762Z,8.00
2023-05-02T23:50:06.268Z,8.00
2023-05-02T23:52:35.694Z,8.00
2023-05-02T23:55:04.125Z,7.90
2023-05-02T23:57:32.004Z,7.90
2023-05-02T23:59:59.826Z,7.90
